sensor_id;sensor_type;location;lat;lon;timestamp;P1;durP1;ratioP1;P2;durP2;ratioP2
31224;SDS011;17847;31.524;74.366;2023-05-23T00:00:48;46.42;;;23.10;;
31224;SDS011;17847;31.524;74.366;2023-05-23T00:03:19;51.80;;;26.27;;
31224;SDS011;17847;31.524;74.366;2023-05-23T00:05:51;54.60;;;26.30;;
31224;SDS011;17847;31.524;74.366;2023-05-23T00:08:21;51.72;;;26.60;;
31224;SDS011;17847;31.524;74.366;2023-05-23T00:10:51;52.08;;;25.80;;
31224;SDS011;17847;31.524;74.366;2023-05-23T00:13:21;48.70;;;25.70;;
31224;SDS011;17847;31.524;74.366;2023-05-23T00:15:50;45.25;;;25.30;;
31224;SDS011;17847;31.524;74.366;2023-05-23T00:18:20;57.00;;;26.70;;
31224;SDS011;17847;31.524;74.366;2023-05-23T00:20:52;51.90;;;26.92;;
31224;SDS011;17847;31.524;74.366;2023-05-23T00:23:21;45.95;;;26.52;;
31224;SDS011;17847;31.524;74.366;2023-05-23T00:25:52;46.90;;;25.40;;
31224;SDS011;17847;31.524;74.366;2023-05-23T00:28:22;54.15;;;25.85;;
31224;SDS011;17847;31.524;74.366;2023-05-23T00:30:53;54.88;;;24.88;;
31224;SDS011;17847;31.524;74.366;2023-05-23T00:33:23;45.35;;;24.35;;
31224;SDS011;17847;31.524;74.366;2023-05-23T00:35:52;49.63;;;24.50;;
31224;SDS011;17847;31.524;74.366;2023-05-23T00:38:21;47.13;;;23.92;;
31224;SDS011;17847;31.524;74.366;2023-05-23T00:40:51;56.17;;;24.75;;
31224;SDS011;17847;31.524;74.366;2023-05-23T00:43:20;50.08;;;25.08;;
31224;SDS011;17847;31.524;74.366;2023-05-23T00:45:50;50.67;;;23.90;;
31224;SDS011;17847;31.524;74.366;2023-05-23T00:48:20;58.78;;;26.45;;
31224;SDS011;17847;31.524;74.366;2023-05-23T00:50:49;46.50;;;23.70;;
31224;SDS011;17847;31.524;74.366;2023-05-23T00:53:19;48.83;;;25.58;;
31224;SDS011;17847;31.524;74.366;2023-05-23T00:55:49;60.85;;;27.88;;
31224;SDS011;17847;31.524;74.366;2023-05-23T00:58:19;55.58;;;28.15;;
31224;SDS011;17847;31.524;74.366;2023-05-23T01:00:49;60.60;;;29.65;;
31224;SDS011;17847;31.524;74.366;2023-05-23T01:03:22;61.35;;;29.33;;
31224;SDS011;17847;31.524;74.366;2023-05-23T01:05:55;73.07;;;30.67;;
31224;SDS011;17847;31.524;74.366;2023-05-23T01:08:25;64.85;;;31.67;;
31224;SDS011;17847;31.524;74.366;2023-05-23T01:10:58;62.03;;;29.95;;
31224;SDS011;17847;31.524;74.366;2023-05-23T01:13:33;52.75;;;26.67;;
31224;SDS011;17847;31.524;74.366;2023-05-23T01:18:42;61.85;;;28.13;;
31224;SDS011;17847;31.524;74.366;2023-05-23T01:21:21;57.72;;;27.70;;
31224;SDS011;17847;31.524;74.366;2023-05-23T01:29:13;61.85;;;26.05;;
31224;SDS011;17847;31.524;74.366;2023-05-23T01:31:51;61.47;;;26.23;;
31224;SDS011;17847;31.524;74.366;2023-05-23T01:36:55;51.22;;;24.52;;
31224;SDS011;17847;31.524;74.366;2023-05-23T01:39:25;53.40;;;24.50;;
31224;SDS011;17847;31.524;74.366;2023-05-23T01:41:54;53.72;;;26.55;;
31224;SDS011;17847;31.524;74.366;2023-05-23T01:44:24;67.93;;;27.35;;
31224;SDS011;17847;31.524;74.366;2023-05-23T01:46:54;59.45;;;26.75;;
31224;SDS011;17847;31.524;74.366;2023-05-23T01:49:24;58.33;;;26.70;;
31224;SDS011;17847;31.524;74.366;2023-05-23T01:51:57;58.65;;;27.13;;
31224;SDS011;17847;31.524;74.366;2023-05-23T01:54:29;59.15;;;26.83;;
31224;SDS011;17847;31.524;74.366;2023-05-23T01:57:00;52.42;;;25.10;;
31224;SDS011;17847;31.524;74.366;2023-05-23T01:59:31;63.88;;;25.30;;
31224;SDS011;17847;31.524;74.366;2023-05-23T02:02:00;61.95;;;25.27;;
31224;SDS011;17847;31.524;74.366;2023-05-23T02:04:30;53.08;;;25.17;;
31224;SDS011;17847;31.524;74.366;2023-05-23T02:07:00;53.20;;;23.98;;
31224;SDS011;17847;31.524;74.366;2023-05-23T02:09:30;51.20;;;25.92;;
31224;SDS011;17847;31.524;74.366;2023-05-23T02:11:59;59.95;;;24.77;;
31224;SDS011;17847;31.524;74.366;2023-05-23T02:14:28;48.90;;;23.88;;
31224;SDS011;17847;31.524;74.366;2023-05-23T02:16:58;60.25;;;25.40;;
31224;SDS011;17847;31.524;74.366;2023-05-23T02:19:28;51.00;;;25.38;;
31224;SDS011;17847;31.524;74.366;2023-05-23T02:21:58;50.75;;;25.42;;
31224;SDS011;17847;31.524;74.366;2023-05-23T02:24:27;69.10;;;26.48;;
31224;SDS011;17847;31.524;74.366;2023-05-23T02:26:56;53.33;;;26.33;;
31224;SDS011;17847;31.524;74.366;2023-05-23T02:29:25;51.63;;;25.75;;
31224;SDS011;17847;31.524;74.366;2023-05-23T02:31:55;49.97;;;24.60;;
31224;SDS011;17847;31.524;74.366;2023-05-23T02:34:24;52.45;;;24.15;;
31224;SDS011;17847;31.524;74.366;2023-05-23T02:36:53;51.33;;;24.35;;
31224;SDS011;17847;31.524;74.366;2023-05-23T02:39:23;57.03;;;24.77;;
31224;SDS011;17847;31.524;74.366;2023-05-23T02:41:53;38.47;;;23.30;;
31224;SDS011;17847;31.524;74.366;2023-05-23T02:44:24;50.83;;;25.02;;
31224;SDS011;17847;31.524;74.366;2023-05-23T02:46:54;47.97;;;23.77;;
31224;SDS011;17847;31.524;74.366;2023-05-23T02:49:23;52.45;;;22.48;;
31224;SDS011;17847;31.524;74.366;2023-05-23T02:51:52;47.20;;;24.15;;
31224;SDS011;17847;31.524;74.366;2023-05-23T02:54:22;44.67;;;22.75;;
31224;SDS011;17847;31.524;74.366;2023-05-23T02:56:51;53.15;;;24.45;;
31224;SDS011;17847;31.524;74.366;2023-05-23T02:59:22;49.20;;;23.73;;
31224;SDS011;17847;31.524;74.366;2023-05-23T03:01:51;56.63;;;24.67;;
31224;SDS011;17847;31.524;74.366;2023-05-23T03:04:21;51.88;;;25.60;;
31224;SDS011;17847;31.524;74.366;2023-05-23T03:06:50;59.10;;;26.55;;
31224;SDS011;17847;31.524;74.366;2023-05-23T03:09:21;55.53;;;24.85;;
31224;SDS011;17847;31.524;74.366;2023-05-23T03:11:51;56.80;;;25.30;;
31224;SDS011;17847;31.524;74.366;2023-05-23T03:14:21;62.72;;;26.33;;
31224;SDS011;17847;31.524;74.366;2023-05-23T03:16:50;56.60;;;24.98;;
31224;SDS011;17847;31.524;74.366;2023-05-23T03:19:20;65.13;;;28.17;;
31224;SDS011;17847;31.524;74.366;2023-05-23T03:21:49;74.80;;;30.35;;
31224;SDS011;17847;31.524;74.366;2023-05-23T03:24:19;79.57;;;30.70;;
31224;SDS011;17847;31.524;74.366;2023-05-23T03:26:49;64.10;;;29.23;;
31224;SDS011;17847;31.524;74.366;2023-05-23T03:29:18;61.13;;;28.25;;
31224;SDS011;17847;31.524;74.366;2023-05-23T03:31:48;61.42;;;25.50;;
31224;SDS011;17847;31.524;74.366;2023-05-23T03:34:18;70.90;;;26.75;;
31224;SDS011;17847;31.524;74.366;2023-05-23T03:36:47;75.47;;;27.80;;
31224;SDS011;17847;31.524;74.366;2023-05-23T03:39:17;64.07;;;26.83;;
31224;SDS011;17847;31.524;74.366;2023-05-23T03:41:46;56.20;;;25.20;;
31224;SDS011;17847;31.524;74.366;2023-05-23T03:44:16;58.47;;;26.15;;
31224;SDS011;17847;31.524;74.366;2023-05-23T03:46:45;57.53;;;25.60;;
31224;SDS011;17847;31.524;74.366;2023-05-23T03:49:16;56.30;;;25.85;;
31224;SDS011;17847;31.524;74.366;2023-05-23T03:51:46;55.58;;;25.15;;
31224;SDS011;17847;31.524;74.366;2023-05-23T03:54:16;57.15;;;25.20;;
31224;SDS011;17847;31.524;74.366;2023-05-23T03:56:46;70.68;;;26.38;;
31224;SDS011;17847;31.524;74.366;2023-05-23T03:59:16;59.50;;;25.52;;
31224;SDS011;17847;31.524;74.366;2023-05-23T04:01:45;67.72;;;26.77;;
31224;SDS011;17847;31.524;74.366;2023-05-23T04:04:15;65.55;;;27.17;;
31224;SDS011;17847;31.524;74.366;2023-05-23T04:06:45;65.28;;;28.83;;
31224;SDS011;17847;31.524;74.366;2023-05-23T04:09:15;56.28;;;28.50;;
31224;SDS011;17847;31.524;74.366;2023-05-23T04:11:46;63.20;;;27.90;;
31224;SDS011;17847;31.524;74.366;2023-05-23T04:14:17;58.55;;;29.13;;
31224;SDS011;17847;31.524;74.366;2023-05-23T04:16:50;70.60;;;29.45;;
31224;SDS011;17847;31.524;74.366;2023-05-23T04:19:20;59.53;;;28.85;;
31224;SDS011;17847;31.524;74.366;2023-05-23T04:21:51;68.60;;;29.00;;
31224;SDS011;17847;31.524;74.366;2023-05-23T04:24:21;58.90;;;28.48;;
31224;SDS011;17847;31.524;74.366;2023-05-23T04:26:52;51.30;;;26.65;;
31224;SDS011;17847;31.524;74.366;2023-05-23T04:29:24;58.22;;;27.20;;
31224;SDS011;17847;31.524;74.366;2023-05-23T04:31:54;40.70;;;20.25;;
31224;SDS011;17847;31.524;74.366;2023-05-23T04:34:23;52.33;;;23.50;;
31224;SDS011;17847;31.524;74.366;2023-05-23T04:36:53;56.95;;;25.08;;
31224;SDS011;17847;31.524;74.366;2023-05-23T04:39:22;63.22;;;25.38;;
31224;SDS011;17847;31.524;74.366;2023-05-23T04:42:11;47.55;;;23.67;;
31224;SDS011;17847;31.524;74.366;2023-05-23T04:45:13;46.80;;;20.77;;
31224;SDS011;17847;31.524;74.366;2023-05-23T04:48:04;38.67;;;18.65;;
31224;SDS011;17847;31.524;74.366;2023-05-23T04:50:42;30.70;;;14.10;;
31224;SDS011;17847;31.524;74.366;2023-05-23T04:53:17;41.65;;;18.20;;
31224;SDS011;17847;31.524;74.366;2023-05-23T04:55:46;40.83;;;20.02;;
31224;SDS011;17847;31.524;74.366;2023-05-23T04:58:17;45.45;;;21.10;;
31224;SDS011;17847;31.524;74.366;2023-05-23T05:00:48;42.60;;;19.98;;
31224;SDS011;17847;31.524;74.366;2023-05-23T05:03:18;44.10;;;17.95;;
31224;SDS011;17847;31.524;74.366;2023-05-23T05:05:47;37.60;;;17.90;;
31224;SDS011;17847;31.524;74.366;2023-05-23T05:08:17;36.92;;;16.58;;
31224;SDS011;17847;31.524;74.366;2023-05-23T05:10:49;41.05;;;14.57;;
31224;SDS011;17847;31.524;74.366;2023-05-23T05:13:19;39.38;;;14.73;;
31224;SDS011;17847;31.524;74.366;2023-05-23T05:15:52;31.80;;;14.45;;
31224;SDS011;17847;31.524;74.366;2023-05-23T05:18:26;29.70;;;13.73;;
31224;SDS011;17847;31.524;74.366;2023-05-23T05:20:57;38.90;;;14.85;;
31224;SDS011;17847;31.524;74.366;2023-05-23T05:23:26;37.15;;;13.38;;
31224;SDS011;17847;31.524;74.366;2023-05-23T05:25:58;36.63;;;14.02;;
31224;SDS011;17847;31.524;74.366;2023-05-23T05:28:28;32.00;;;12.82;;
31224;SDS011;17847;31.524;74.366;2023-05-23T05:30:58;34.90;;;13.75;;
31224;SDS011;17847;31.524;74.366;2023-05-23T05:33:28;34.67;;;12.52;;
31224;SDS011;17847;31.524;74.366;2023-05-23T05:36:07;31.35;;;12.68;;
31224;SDS011;17847;31.524;74.366;2023-05-23T05:38:37;30.63;;;12.93;;
31224;SDS011;17847;31.524;74.366;2023-05-23T05:41:07;36.20;;;12.38;;
31224;SDS011;17847;31.524;74.366;2023-05-23T05:43:41;34.47;;;13.00;;
31224;SDS011;17847;31.524;74.366;2023-05-23T05:46:10;37.08;;;13.00;;
31224;SDS011;17847;31.524;74.366;2023-05-23T05:48:40;35.47;;;12.82;;
31224;SDS011;17847;31.524;74.366;2023-05-23T05:51:11;27.60;;;12.18;;
31224;SDS011;17847;31.524;74.366;2023-05-23T05:53:41;35.70;;;13.77;;
31224;SDS011;17847;31.524;74.366;2023-05-23T05:56:11;28.30;;;13.57;;
31224;SDS011;17847;31.524;74.366;2023-05-23T05:58:41;31.73;;;13.88;;
31224;SDS011;17847;31.524;74.366;2023-05-23T06:01:12;41.72;;;13.68;;
31224;SDS011;17847;31.524;74.366;2023-05-23T06:03:42;38.35;;;12.70;;
31224;SDS011;17847;31.524;74.366;2023-05-23T06:06:12;31.45;;;12.50;;
31224;SDS011;17847;31.524;74.366;2023-05-23T06:08:42;31.75;;;12.45;;
31224;SDS011;17847;31.524;74.366;2023-05-23T06:11:16;31.77;;;13.30;;
31224;SDS011;17847;31.524;74.366;2023-05-23T06:13:45;33.60;;;13.65;;
31224;SDS011;17847;31.524;74.366;2023-05-23T06:16:14;40.17;;;12.73;;
31224;SDS011;17847;31.524;74.366;2023-05-23T06:18:44;37.72;;;13.23;;
31224;SDS011;17847;31.524;74.366;2023-05-23T06:21:14;35.78;;;13.88;;
31224;SDS011;17847;31.524;74.366;2023-05-23T06:23:48;33.25;;;12.98;;
31224;SDS011;17847;31.524;74.366;2023-05-23T06:26:17;31.35;;;13.07;;
31224;SDS011;17847;31.524;74.366;2023-05-23T06:28:47;41.97;;;13.05;;
31224;SDS011;17847;31.524;74.366;2023-05-23T06:31:16;38.72;;;13.52;;
31224;SDS011;17847;31.524;74.366;2023-05-23T06:33:46;31.90;;;12.60;;
31224;SDS011;17847;31.524;74.366;2023-05-23T06:36:16;24.73;;;11.48;;
31224;SDS011;17847;31.524;74.366;2023-05-23T06:38:47;33.58;;;11.50;;
31224;SDS011;17847;31.524;74.366;2023-05-23T06:41:17;33.60;;;12.25;;
31224;SDS011;17847;31.524;74.366;2023-05-23T06:43:46;32.45;;;11.93;;
31224;SDS011;17847;31.524;74.366;2023-05-23T06:46:22;30.98;;;11.25;;
31224;SDS011;17847;31.524;74.366;2023-05-23T06:48:52;29.63;;;11.38;;
31224;SDS011;17847;31.524;74.366;2023-05-23T06:51:41;29.17;;;10.73;;
31224;SDS011;17847;31.524;74.366;2023-05-23T06:54:11;35.50;;;12.85;;
31224;SDS011;17847;31.524;74.366;2023-05-23T06:56:40;28.08;;;10.50;;
31224;SDS011;17847;31.524;74.366;2023-05-23T06:59:10;32.10;;;10.30;;
31224;SDS011;17847;31.524;74.366;2023-05-23T07:01:39;33.80;;;9.77;;
31224;SDS011;17847;31.524;74.366;2023-05-23T07:04:09;23.65;;;9.50;;
31224;SDS011;17847;31.524;74.366;2023-05-23T07:06:40;28.70;;;10.00;;
31224;SDS011;17847;31.524;74.366;2023-05-23T07:09:09;30.45;;;10.00;;
31224;SDS011;17847;31.524;74.366;2023-05-23T07:11:40;28.50;;;9.25;;
31224;SDS011;17847;31.524;74.366;2023-05-23T07:14:10;34.22;;;8.35;;
31224;SDS011;17847;31.524;74.366;2023-05-23T07:16:41;23.27;;;8.13;;
31224;SDS011;17847;31.524;74.366;2023-05-23T07:19:10;28.33;;;9.18;;
31224;SDS011;17847;31.524;74.366;2023-05-23T07:21:44;29.48;;;8.85;;
31224;SDS011;17847;31.524;74.366;2023-05-23T07:24:16;39.42;;;9.30;;
31224;SDS011;17847;31.524;74.366;2023-05-23T07:26:46;33.28;;;9.80;;
31224;SDS011;17847;31.524;74.366;2023-05-23T07:29:16;28.50;;;9.18;;
31224;SDS011;17847;31.524;74.366;2023-05-23T07:31:48;28.20;;;9.90;;
31224;SDS011;17847;31.524;74.366;2023-05-23T07:34:19;23.92;;;9.23;;
31224;SDS011;17847;31.524;74.366;2023-05-23T07:36:53;25.23;;;9.43;;
31224;SDS011;17847;31.524;74.366;2023-05-23T07:39:25;33.03;;;9.43;;
31224;SDS011;17847;31.524;74.366;2023-05-23T07:41:58;22.35;;;9.38;;
31224;SDS011;17847;31.524;74.366;2023-05-23T07:44:28;41.78;;;10.15;;
31224;SDS011;17847;31.524;74.366;2023-05-23T07:46:57;26.85;;;8.32;;
31224;SDS011;17847;31.524;74.366;2023-05-23T07:49:28;32.88;;;8.85;;
31224;SDS011;17847;31.524;74.366;2023-05-23T07:51:57;24.02;;;7.97;;
31224;SDS011;17847;31.524;74.366;2023-05-23T07:54:27;20.95;;;6.82;;
31224;SDS011;17847;31.524;74.366;2023-05-23T07:56:58;24.75;;;8.00;;
31224;SDS011;17847;31.524;74.366;2023-05-23T07:59:28;22.35;;;7.63;;
31224;SDS011;17847;31.524;74.366;2023-05-23T08:01:58;23.67;;;7.45;;
31224;SDS011;17847;31.524;74.366;2023-05-23T08:04:27;25.67;;;8.05;;
31224;SDS011;17847;31.524;74.366;2023-05-23T08:06:57;38.28;;;8.82;;
31224;SDS011;17847;31.524;74.366;2023-05-23T08:09:55;21.98;;;7.90;;
31224;SDS011;17847;31.524;74.366;2023-05-23T08:12:25;25.95;;;8.75;;
31224;SDS011;17847;31.524;74.366;2023-05-23T08:15:05;25.95;;;8.68;;
31224;SDS011;17847;31.524;74.366;2023-05-23T08:17:41;28.25;;;9.23;;
31224;SDS011;17847;31.524;74.366;2023-05-23T08:20:14;29.73;;;9.57;;
31224;SDS011;17847;31.524;74.366;2023-05-23T08:22:45;37.00;;;10.00;;
31224;SDS011;17847;31.524;74.366;2023-05-23T08:25:14;35.28;;;9.98;;
31224;SDS011;17847;31.524;74.366;2023-05-23T08:27:43;28.73;;;8.68;;
31224;SDS011;17847;31.524;74.366;2023-05-23T08:30:35;26.50;;;7.40;;
31224;SDS011;17847;31.524;74.366;2023-05-23T08:33:06;38.30;;;8.48;;
31224;SDS011;17847;31.524;74.366;2023-05-23T08:35:38;34.17;;;7.30;;
31224;SDS011;17847;31.524;74.366;2023-05-23T08:40:55;31.08;;;6.85;;
31224;SDS011;17847;31.524;74.366;2023-05-23T08:43:30;30.65;;;6.40;;
31224;SDS011;17847;31.524;74.366;2023-05-23T08:45:59;43.45;;;7.22;;
31224;SDS011;17847;31.524;74.366;2023-05-23T08:48:32;42.97;;;6.15;;
31224;SDS011;17847;31.524;74.366;2023-05-23T08:51:09;29.02;;;5.93;;
31224;SDS011;17847;31.524;74.366;2023-05-23T08:58:47;37.15;;;7.13;;
31224;SDS011;17847;31.524;74.366;2023-05-23T09:01:18;57.08;;;6.25;;
31224;SDS011;17847;31.524;74.366;2023-05-23T09:03:53;33.05;;;5.80;;
31224;SDS011;17847;31.524;74.366;2023-05-23T09:06:34;34.53;;;5.90;;
31224;SDS011;17847;31.524;74.366;2023-05-23T09:09:05;27.05;;;5.53;;
31224;SDS011;17847;31.524;74.366;2023-05-23T09:11:34;39.42;;;6.78;;
31224;SDS011;17847;31.524;74.366;2023-05-23T09:14:08;34.97;;;5.53;;
31224;SDS011;17847;31.524;74.366;2023-05-23T09:16:38;29.50;;;5.32;;
31224;SDS011;17847;31.524;74.366;2023-05-23T09:19:12;31.25;;;5.40;;
31224;SDS011;17847;31.524;74.366;2023-05-23T09:21:49;23.08;;;5.07;;
31224;SDS011;17847;31.524;74.366;2023-05-23T09:24:32;27.55;;;4.55;;
31224;SDS011;17847;31.524;74.366;2023-05-23T09:27:07;25.80;;;5.17;;
31224;SDS011;17847;31.524;74.366;2023-05-23T09:29:37;29.80;;;4.85;;
31224;SDS011;17847;31.524;74.366;2023-05-23T09:32:12;28.13;;;5.20;;
31224;SDS011;17847;31.524;74.366;2023-05-23T09:34:57;25.88;;;5.20;;
31224;SDS011;17847;31.524;74.366;2023-05-23T09:40:02;28.02;;;4.50;;
31224;SDS011;17847;31.524;74.366;2023-05-23T09:42:44;21.08;;;4.75;;
31224;SDS011;17847;31.524;74.366;2023-05-23T09:45:15;29.38;;;5.15;;
31224;SDS011;17847;31.524;74.366;2023-05-23T09:47:52;21.10;;;5.47;;
31224;SDS011;17847;31.524;74.366;2023-05-23T09:50:29;33.92;;;5.03;;
31224;SDS011;17847;31.524;74.366;2023-05-23T09:53:03;25.48;;;6.40;;
31224;SDS011;17847;31.524;74.366;2023-05-23T09:55:33;24.30;;;4.90;;
31224;SDS011;17847;31.524;74.366;2023-05-23T09:58:04;25.98;;;4.97;;
31224;SDS011;17847;31.524;74.366;2023-05-23T10:00:35;26.33;;;5.10;;
31224;SDS011;17847;31.524;74.366;2023-05-23T10:03:12;22.10;;;4.75;;
31224;SDS011;17847;31.524;74.366;2023-05-23T10:05:52;25.23;;;5.65;;
31224;SDS011;17847;31.524;74.366;2023-05-23T10:13:43;28.77;;;5.95;;
31224;SDS011;17847;31.524;74.366;2023-05-23T10:19:10;27.90;;;5.45;;
31224;SDS011;17847;31.524;74.366;2023-05-23T10:21:49;30.48;;;5.75;;
31224;SDS011;17847;31.524;74.366;2023-05-23T10:24:23;24.63;;;6.20;;
31224;SDS011;17847;31.524;74.366;2023-05-23T10:26:54;39.22;;;5.93;;
31224;SDS011;17847;31.524;74.366;2023-05-23T10:29:24;23.73;;;5.90;;
31224;SDS011;17847;31.524;74.366;2023-05-23T10:31:54;42.28;;;9.57;;
31224;SDS011;17847;31.524;74.366;2023-05-23T10:37:04;40.63;;;6.50;;
31224;SDS011;17847;31.524;74.366;2023-05-23T10:42:34;44.40;;;7.75;;
31224;SDS011;17847;31.524;74.366;2023-05-23T10:45:14;39.33;;;6.50;;
31224;SDS011;17847;31.524;74.366;2023-05-23T10:47:48;24.90;;;5.57;;
31224;SDS011;17847;31.524;74.366;2023-05-23T10:50:30;42.15;;;5.15;;
31224;SDS011;17847;31.524;74.366;2023-05-23T10:53:03;41.00;;;5.02;;
31224;SDS011;17847;31.524;74.366;2023-05-23T10:55:34;26.23;;;4.38;;
31224;SDS011;17847;31.524;74.366;2023-05-23T10:58:08;32.35;;;5.60;;
31224;SDS011;17847;31.524;74.366;2023-05-23T11:00:46;33.13;;;6.20;;
31224;SDS011;17847;31.524;74.366;2023-05-23T11:03:33;30.00;;;5.05;;
31224;SDS011;17847;31.524;74.366;2023-05-23T11:06:06;35.72;;;4.85;;
31224;SDS011;17847;31.524;74.366;2023-05-23T11:09:04;38.28;;;5.53;;
31224;SDS011;17847;31.524;74.366;2023-05-23T11:11:59;39.13;;;5.35;;
31224;SDS011;17847;31.524;74.366;2023-05-23T11:14:51;30.35;;;5.28;;
31224;SDS011;17847;31.524;74.366;2023-05-23T11:17:47;30.25;;;4.65;;
31224;SDS011;17847;31.524;74.366;2023-05-23T11:20:24;18.98;;;4.82;;
31224;SDS011;17847;31.524;74.366;2023-05-23T11:28:12;28.70;;;4.27;;
31224;SDS011;17847;31.524;74.366;2023-05-23T11:30:46;25.50;;;4.60;;
31224;SDS011;17847;31.524;74.366;2023-05-23T11:33:17;17.42;;;4.28;;
31224;SDS011;17847;31.524;74.366;2023-05-23T11:35:47;33.17;;;4.90;;
31224;SDS011;17847;31.524;74.366;2023-05-23T11:38:19;28.88;;;4.47;;
31224;SDS011;17847;31.524;74.366;2023-05-23T11:40:48;32.22;;;4.97;;
31224;SDS011;17847;31.524;74.366;2023-05-23T11:43:18;15.98;;;3.97;;
31224;SDS011;17847;31.524;74.366;2023-05-23T11:45:47;34.70;;;4.47;;
31224;SDS011;17847;31.524;74.366;2023-05-23T11:48:17;23.15;;;3.60;;
31224;SDS011;17847;31.524;74.366;2023-05-23T11:50:47;16.30;;;4.45;;
31224;SDS011;17847;31.524;74.366;2023-05-23T11:53:21;39.58;;;4.75;;
31224;SDS011;17847;31.524;74.366;2023-05-23T11:55:53;27.77;;;4.35;;
31224;SDS011;17847;31.524;74.366;2023-05-23T12:01:02;25.10;;;4.18;;
31224;SDS011;17847;31.524;74.366;2023-05-23T12:03:33;31.75;;;4.78;;
31224;SDS011;17847;31.524;74.366;2023-05-23T12:06:17;23.38;;;3.72;;
31224;SDS011;17847;31.524;74.366;2023-05-23T12:08:47;25.27;;;3.80;;
31224;SDS011;17847;31.524;74.366;2023-05-23T12:11:16;33.55;;;4.30;;
31224;SDS011;17847;31.524;74.366;2023-05-23T12:13:46;26.55;;;3.47;;
31224;SDS011;17847;31.524;74.366;2023-05-23T12:16:15;30.25;;;3.83;;
31224;SDS011;17847;31.524;74.366;2023-05-23T12:18:45;27.30;;;4.35;;
31224;SDS011;17847;31.524;74.366;2023-05-23T12:21:15;25.38;;;4.10;;
31224;SDS011;17847;31.524;74.366;2023-05-23T12:23:45;28.17;;;5.05;;
31224;SDS011;17847;31.524;74.366;2023-05-23T12:26:15;22.15;;;3.80;;
31224;SDS011;17847;31.524;74.366;2023-05-23T12:28:44;30.30;;;4.47;;
31224;SDS011;17847;31.524;74.366;2023-05-23T12:31:18;27.83;;;3.97;;
31224;SDS011;17847;31.524;74.366;2023-05-23T12:33:51;22.73;;;3.70;;
31224;SDS011;17847;31.524;74.366;2023-05-23T12:36:24;25.85;;;4.53;;
31224;SDS011;17847;31.524;74.366;2023-05-23T12:39:01;26.90;;;4.70;;
31224;SDS011;17847;31.524;74.366;2023-05-23T12:41:32;36.08;;;5.10;;
31224;SDS011;17847;31.524;74.366;2023-05-23T12:44:02;37.65;;;4.38;;
31224;SDS011;17847;31.524;74.366;2023-05-23T12:46:32;19.50;;;4.47;;
31224;SDS011;17847;31.524;74.366;2023-05-23T12:49:02;23.25;;;3.58;;
31224;SDS011;17847;31.524;74.366;2023-05-23T12:51:31;29.40;;;3.83;;
31224;SDS011;17847;31.524;74.366;2023-05-23T12:54:01;30.67;;;4.43;;
31224;SDS011;17847;31.524;74.366;2023-05-23T12:56:30;29.83;;;4.78;;
31224;SDS011;17847;31.524;74.366;2023-05-23T12:59:01;27.88;;;4.78;;
31224;SDS011;17847;31.524;74.366;2023-05-23T13:01:31;22.95;;;4.43;;
31224;SDS011;17847;31.524;74.366;2023-05-23T13:04:02;31.05;;;4.72;;
31224;SDS011;17847;31.524;74.366;2023-05-23T13:06:32;28.85;;;5.03;;
31224;SDS011;17847;31.524;74.366;2023-05-23T13:09:01;29.05;;;4.32;;
31224;SDS011;17847;31.524;74.366;2023-05-23T13:11:31;23.15;;;4.57;;
31224;SDS011;17847;31.524;74.366;2023-05-23T13:14:00;27.05;;;4.90;;
31224;SDS011;17847;31.524;74.366;2023-05-23T13:16:43;30.98;;;6.00;;
31224;SDS011;17847;31.524;74.366;2023-05-23T13:19:13;20.33;;;4.60;;
31224;SDS011;17847;31.524;74.366;2023-05-23T13:21:42;32.00;;;5.75;;
31224;SDS011;17847;31.524;74.366;2023-05-23T13:24:16;23.75;;;4.65;;
31224;SDS011;17847;31.524;74.366;2023-05-23T13:26:46;26.17;;;4.80;;
31224;SDS011;17847;31.524;74.366;2023-05-23T13:29:16;21.83;;;5.15;;
31224;SDS011;17847;31.524;74.366;2023-05-23T13:31:45;16.55;;;4.43;;
31224;SDS011;17847;31.524;74.366;2023-05-23T13:34:14;27.17;;;4.90;;
31224;SDS011;17847;31.524;74.366;2023-05-23T13:36:44;27.58;;;5.38;;
31224;SDS011;17847;31.524;74.366;2023-05-23T13:39:13;33.38;;;6.40;;
31224;SDS011;17847;31.524;74.366;2023-05-23T13:41:45;19.77;;;4.22;;
31224;SDS011;17847;31.524;74.366;2023-05-23T13:44:15;27.55;;;5.38;;
31224;SDS011;17847;31.524;74.366;2023-05-23T13:46:45;24.58;;;5.15;;
31224;SDS011;17847;31.524;74.366;2023-05-23T13:49:14;31.33;;;4.93;;
31224;SDS011;17847;31.524;74.366;2023-05-23T13:51:44;26.95;;;5.10;;
31224;SDS011;17847;31.524;74.366;2023-05-23T13:54:14;31.23;;;5.88;;
31224;SDS011;17847;31.524;74.366;2023-05-23T13:56:43;23.95;;;5.60;;
31224;SDS011;17847;31.524;74.366;2023-05-23T13:59:13;44.13;;;7.90;;
31224;SDS011;17847;31.524;74.366;2023-05-23T14:01:48;30.50;;;5.45;;
31224;SDS011;17847;31.524;74.366;2023-05-23T14:04:18;26.45;;;5.57;;
31224;SDS011;17847;31.524;74.366;2023-05-23T14:06:47;32.05;;;5.60;;
31224;SDS011;17847;31.524;74.366;2023-05-23T14:09:18;28.38;;;6.85;;
31224;SDS011;17847;31.524;74.366;2023-05-23T14:11:49;28.65;;;5.15;;
31224;SDS011;17847;31.524;74.366;2023-05-23T14:14:19;21.80;;;5.53;;
31224;SDS011;17847;31.524;74.366;2023-05-23T14:16:51;38.20;;;5.80;;
31224;SDS011;17847;31.524;74.366;2023-05-23T14:19:21;33.78;;;6.10;;
31224;SDS011;17847;31.524;74.366;2023-05-23T14:21:50;27.58;;;5.75;;
31224;SDS011;17847;31.524;74.366;2023-05-23T14:24:20;18.98;;;5.53;;
31224;SDS011;17847;31.524;74.366;2023-05-23T14:26:49;36.90;;;5.60;;
31224;SDS011;17847;31.524;74.366;2023-05-23T14:29:19;27.92;;;6.20;;
31224;SDS011;17847;31.524;74.366;2023-05-23T14:31:50;23.83;;;5.53;;
31224;SDS011;17847;31.524;74.366;2023-05-23T14:34:19;22.73;;;5.25;;
31224;SDS011;17847;31.524;74.366;2023-05-23T14:36:49;18.70;;;5.03;;
31224;SDS011;17847;31.524;74.366;2023-05-23T14:39:19;23.48;;;5.80;;
31224;SDS011;17847;31.524;74.366;2023-05-23T14:41:48;34.05;;;5.40;;
31224;SDS011;17847;31.524;74.366;2023-05-23T14:44:19;33.88;;;7.13;;
31224;SDS011;17847;31.524;74.366;2023-05-23T14:46:49;33.83;;;5.50;;
31224;SDS011;17847;31.524;74.366;2023-05-23T14:49:18;24.48;;;4.97;;
31224;SDS011;17847;31.524;74.366;2023-05-23T14:51:48;19.05;;;5.97;;
31224;SDS011;17847;31.524;74.366;2023-05-23T14:54:18;28.63;;;5.25;;
31224;SDS011;17847;31.524;74.366;2023-05-23T14:56:47;25.58;;;5.70;;
31224;SDS011;17847;31.524;74.366;2023-05-23T14:59:19;18.20;;;5.18;;
31224;SDS011;17847;31.524;74.366;2023-05-23T15:01:49;20.27;;;5.28;;
31224;SDS011;17847;31.524;74.366;2023-05-23T15:04:19;23.88;;;4.95;;
31224;SDS011;17847;31.524;74.366;2023-05-23T15:06:54;13.70;;;4.60;;
31224;SDS011;17847;31.524;74.366;2023-05-23T15:09:24;20.45;;;5.60;;
31224;SDS011;17847;31.524;74.366;2023-05-23T15:11:54;17.75;;;4.57;;
31224;SDS011;17847;31.524;74.366;2023-05-23T15:14:24;25.80;;;5.70;;
31224;SDS011;17847;31.524;74.366;2023-05-23T15:16:57;26.20;;;5.88;;
31224;SDS011;17847;31.524;74.366;2023-05-23T15:19:35;26.08;;;6.65;;
31224;SDS011;17847;31.524;74.366;2023-05-23T15:22:06;32.45;;;6.28;;
31224;SDS011;17847;31.524;74.366;2023-05-23T15:24:48;30.08;;;7.22;;